sensor_id;sensor_type;location;lat;lon;timestamp;P1;durP1;ratioP1;P2;durP2;ratioP2
18499;SDS011;9379;52.134;11.576;2022-09-13T00:00:30;5.32;;;4.93;;
18499;SDS011;9379;52.134;11.576;2022-09-13T00:02:56;7.28;;;4.95;;
18499;SDS011;9379;52.134;11.576;2022-09-13T00:05:23;5.43;;;4.97;;
18499;SDS011;9379;52.134;11.576;2022-09-13T00:07:50;5.55;;;5.03;;
18499;SDS011;9379;52.134;11.576;2022-09-13T00:10:17;5.38;;;4.97;;
18499;SDS011;9379;52.134;11.576;2022-09-13T00:12:45;5.60;;;5.10;;
18499;SDS011;9379;52.134;11.576;2022-09-13T00:15:12;5.10;;;4.70;;
18499;SDS011;9379;52.134;11.576;2022-09-13T00:17:39;4.78;;;4.32;;
18499;SDS011;9379;52.134;11.576;2022-09-13T00:20:06;5.35;;;4.85;;
18499;SDS011;9379;52.134;11.576;2022-09-13T00:22:34;5.65;;;5.25;;
18499;SDS011;9379;52.134;11.576;2022-09-13T00:25:01;5.40;;;4.90;;
18499;SDS011;9379;52.134;11.576;2022-09-13T00:27:28;5.55;;;5.05;;
18499;SDS011;9379;52.134;11.576;2022-09-13T00:29:56;6.60;;;5.57;;
18499;SDS011;9379;52.134;11.576;2022-09-13T00:32:23;5.65;;;5.15;;
18499;SDS011;9379;52.134;11.576;2022-09-13T00:34:49;5.65;;;5.15;;
18499;SDS011;9379;52.134;11.576;2022-09-13T00:37:16;5.40;;;5.00;;
18499;SDS011;9379;52.134;11.576;2022-09-13T00:39:42;5.88;;;5.38;;
18499;SDS011;9379;52.134;11.576;2022-09-13T00:42:09;6.32;;;5.80;;
18499;SDS011;9379;52.134;11.576;2022-09-13T00:44:48;7.40;;;6.80;;
18499;SDS011;9379;52.134;11.576;2022-09-13T00:47:21;7.22;;;6.53;;
18499;SDS011;9379;52.134;11.576;2022-09-13T00:49:51;6.10;;;5.57;;
18499;SDS011;9379;52.134;11.576;2022-09-13T00:52:22;7.38;;;6.82;;
18499;SDS011;9379;52.134;11.576;2022-09-13T00:54:52;7.10;;;6.53;;
18499;SDS011;9379;52.134;11.576;2022-09-13T00:57:25;7.03;;;6.45;;
18499;SDS011;9379;52.134;11.576;2022-09-13T00:59:55;7.28;;;6.68;;
18499;SDS011;9379;52.134;11.576;2022-09-13T01:02:27;6.18;;;5.68;;
18499;SDS011;9379;52.134;11.576;2022-09-13T01:04:54;7.28;;;6.68;;
18499;SDS011;9379;52.134;11.576;2022-09-13T01:07:21;7.38;;;6.68;;
18499;SDS011;9379;52.134;11.576;2022-09-13T01:09:48;5.13;;;4.63;;
18499;SDS011;9379;52.134;11.576;2022-09-13T01:12:20;6.18;;;5.68;;
18499;SDS011;9379;52.134;11.576;2022-09-13T01:14:55;5.97;;;5.38;;
18499;SDS011;9379;52.134;11.576;2022-09-13T01:17:24;9.30;;;6.80;;
18499;SDS011;9379;52.134;11.576;2022-09-13T01:19:53;6.22;;;5.63;;
18499;SDS011;9379;52.134;11.576;2022-09-13T01:22:42;6.22;;;5.70;;
18499;SDS011;9379;52.134;11.576;2022-09-13T01:31:57;6.22;;;5.72;;
18499;SDS011;9379;52.134;11.576;2022-09-13T01:34:34;6.72;;;6.13;;
18499;SDS011;9379;52.134;11.576;2022-09-13T01:37:19;5.70;;;5.30;;
18499;SDS011;9379;52.134;11.576;2022-09-13T01:39:59;7.78;;;7.18;;
18499;SDS011;9379;52.134;11.576;2022-09-13T01:42:35;7.03;;;6.53;;
18499;SDS011;9379;52.134;11.576;2022-09-13T01:45:15;5.70;;;5.20;;
18499;SDS011;9379;52.134;11.576;2022-09-13T01:47:51;6.20;;;5.60;;
18499;SDS011;9379;52.134;11.576;2022-09-13T01:50:27;7.93;;;7.22;;
18499;SDS011;9379;52.134;11.576;2022-09-13T01:53:04;6.65;;;6.05;;
18499;SDS011;9379;52.134;11.576;2022-09-13T01:55:36;6.85;;;6.25;;
18499;SDS011;9379;52.134;11.576;2022-09-13T01:58:09;6.97;;;6.28;;
18499;SDS011;9379;52.134;11.576;2022-09-13T02:00:43;6.72;;;6.18;;
18499;SDS011;9379;52.134;11.576;2022-09-13T02:03:18;6.93;;;6.43;;
18499;SDS011;9379;52.134;11.576;2022-09-13T02:05:53;6.13;;;5.47;;
18499;SDS011;9379;52.134;11.576;2022-09-13T02:08:24;5.78;;;5.38;;
18499;SDS011;9379;52.134;11.576;2022-09-13T02:10:58;9.90;;;8.07;;
18499;SDS011;9379;52.134;11.576;2022-09-13T02:13:30;7.68;;;6.97;;
18499;SDS011;9379;52.134;11.576;2022-09-13T02:16:04;7.40;;;6.80;;
18499;SDS011;9379;52.134;11.576;2022-09-13T02:18:37;6.90;;;6.30;;
18499;SDS011;9379;52.134;11.576;2022-09-13T02:21:07;8.45;;;7.38;;
18499;SDS011;9379;52.134;11.576;2022-09-13T02:23:39;6.18;;;5.68;;
18499;SDS011;9379;52.134;11.576;2022-09-13T02:26:08;6.25;;;5.75;;
18499;SDS011;9379;52.134;11.576;2022-09-13T02:28:40;6.53;;;5.93;;
18499;SDS011;9379;52.134;11.576;2022-09-13T02:31:10;8.45;;;7.57;;
18499;SDS011;9379;52.134;11.576;2022-09-13T02:33:40;8.85;;;7.97;;
18499;SDS011;9379;52.134;11.576;2022-09-13T02:36:12;5.38;;;5.03;;
18499;SDS011;9379;52.134;11.576;2022-09-13T02:38:45;6.30;;;5.80;;
18499;SDS011;9379;52.134;11.576;2022-09-13T02:41:16;6.47;;;5.97;;
18499;SDS011;9379;52.134;11.576;2022-09-13T02:43:48;5.28;;;4.93;;
18499;SDS011;9379;52.134;11.576;2022-09-13T02:46:25;5.88;;;5.40;;
18499;SDS011;9379;52.134;11.576;2022-09-13T02:49:05;5.75;;;5.15;;
18499;SDS011;9379;52.134;11.576;2022-09-13T02:51:40;5.65;;;5.15;;
18499;SDS011;9379;52.134;11.576;2022-09-13T02:54:13;6.53;;;5.93;;
18499;SDS011;9379;52.134;11.576;2022-09-13T02:56:50;5.18;;;4.78;;
18499;SDS011;9379;52.134;11.576;2022-09-13T02:59:23;6.88;;;4.90;;
18499;SDS011;9379;52.134;11.576;2022-09-13T03:01:51;5.20;;;4.70;;
18499;SDS011;9379;52.134;11.576;2022-09-13T03:04:25;4.60;;;4.30;;
18499;SDS011;9379;52.134;11.576;2022-09-13T03:06:52;5.70;;;5.20;;
18499;SDS011;9379;52.134;11.576;2022-09-13T03:09:19;4.65;;;4.30;;
18499;SDS011;9379;52.134;11.576;2022-09-13T03:11:55;5.25;;;4.68;;
18499;SDS011;9379;52.134;11.576;2022-09-13T03:14:39;4.78;;;4.05;;
18499;SDS011;9379;52.134;11.576;2022-09-13T03:17:19;5.43;;;4.28;;
18499;SDS011;9379;52.134;11.576;2022-09-13T03:20:07;4.43;;;4.13;;
18499;SDS011;9379;52.134;11.576;2022-09-13T03:25:37;4.75;;;4.22;;
18499;SDS011;9379;52.134;11.576;2022-09-13T03:28:17;4.28;;;3.88;;
18499;SDS011;9379;52.134;11.576;2022-09-13T03:30:51;4.93;;;4.38;;
18499;SDS011;9379;52.134;11.576;2022-09-13T03:33:25;5.18;;;4.68;;
18499;SDS011;9379;52.134;11.576;2022-09-13T03:36:00;3.88;;;3.53;;
18499;SDS011;9379;52.134;11.576;2022-09-13T03:38:36;5.78;;;4.78;;
18499;SDS011;9379;52.134;11.576;2022-09-13T03:41:06;3.90;;;3.50;;
18499;SDS011;9379;52.134;11.576;2022-09-13T03:43:37;4.40;;;4.00;;
18499;SDS011;9379;52.134;11.576;2022-09-13T03:46:10;4.95;;;4.43;;
18499;SDS011;9379;52.134;11.576;2022-09-13T03:48:40;4.85;;;3.58;;
18499;SDS011;9379;52.134;11.576;2022-09-13T03:51:10;3.50;;;3.20;;
18499;SDS011;9379;52.134;11.576;2022-09-13T03:53:38;4.25;;;3.90;;
18499;SDS011;9379;52.134;11.576;2022-09-13T03:56:12;4.57;;;2.95;;
18499;SDS011;9379;52.134;11.576;2022-09-13T03:58:40;3.72;;;3.42;;
18499;SDS011;9379;52.134;11.576;2022-09-13T04:01:08;4.05;;;3.72;;
18499;SDS011;9379;52.134;11.576;2022-09-13T04:03:35;5.75;;;4.18;;
18499;SDS011;9379;52.134;11.576;2022-09-13T04:06:02;4.30;;;3.90;;
18499;SDS011;9379;52.134;11.576;2022-09-13T04:08:30;3.85;;;3.53;;
18499;SDS011;9379;52.134;11.576;2022-09-13T04:10:57;2.92;;;2.72;;
18499;SDS011;9379;52.134;11.576;2022-09-13T04:13:24;3.13;;;2.92;;
18499;SDS011;9379;52.134;11.576;2022-09-13T04:15:52;3.55;;;3.20;;
18499;SDS011;9379;52.134;11.576;2022-09-13T04:18:18;5.47;;;3.40;;
18499;SDS011;9379;52.134;11.576;2022-09-13T04:20:52;3.33;;;3.03;;
18499;SDS011;9379;52.134;11.576;2022-09-13T04:23:20;2.90;;;2.70;;
18499;SDS011;9379;52.134;11.576;2022-09-13T04:25:48;3.35;;;3.05;;
18499;SDS011;9379;52.134;11.576;2022-09-13T04:28:15;4.43;;;3.65;;
18499;SDS011;9379;52.134;11.576;2022-09-13T04:30:43;4.43;;;4.03;;
18499;SDS011;9379;52.134;11.576;2022-09-13T04:33:10;5.57;;;4.05;;
18499;SDS011;9379;52.134;11.576;2022-09-13T04:35:36;4.63;;;4.22;;
18499;SDS011;9379;52.134;11.576;2022-09-13T04:38:04;3.78;;;3.47;;
18499;SDS011;9379;52.134;11.576;2022-09-13T04:40:31;3.67;;;3.38;;
18499;SDS011;9379;52.134;11.576;2022-09-13T04:43:00;6.13;;;5.53;;
18499;SDS011;9379;52.134;11.576;2022-09-13T04:45:27;7.00;;;5.68;;
18499;SDS011;9379;52.134;11.576;2022-09-13T04:47:54;4.85;;;3.75;;
18499;SDS011;9379;52.134;11.576;2022-09-13T04:50:21;5.05;;;4.53;;
18499;SDS011;9379;52.134;11.576;2022-09-13T04:52:49;4.38;;;4.07;;
18499;SDS011;9379;52.134;11.576;2022-09-13T04:55:16;5.65;;;5.03;;
18499;SDS011;9379;52.134;11.576;2022-09-13T04:57:43;10.88;;;5.60;;
18499;SDS011;9379;52.134;11.576;2022-09-13T05:00:11;9.98;;;6.63;;
18499;SDS011;9379;52.134;11.576;2022-09-13T05:02:38;6.45;;;5.72;;
18499;SDS011;9379;52.134;11.576;2022-09-13T05:05:04;6.35;;;5.28;;
18499;SDS011;9379;52.134;11.576;2022-09-13T05:07:32;5.07;;;4.63;;
18499;SDS011;9379;52.134;11.576;2022-09-13T05:09:59;6.03;;;5.43;;
18499;SDS011;9379;52.134;11.576;2022-09-13T05:12:26;5.03;;;4.50;;
18499;SDS011;9379;52.134;11.576;2022-09-13T05:14:52;5.20;;;4.45;;
18499;SDS011;9379;52.134;11.576;2022-09-13T05:17:20;5.45;;;4.95;;
18499;SDS011;9379;52.134;11.576;2022-09-13T05:19:47;4.82;;;4.43;;
18499;SDS011;9379;52.134;11.576;2022-09-13T05:22:14;5.43;;;4.95;;
18499;SDS011;9379;52.134;11.576;2022-09-13T05:24:40;11.88;;;5.20;;
18499;SDS011;9379;52.134;11.576;2022-09-13T05:27:07;7.57;;;5.15;;
18499;SDS011;9379;52.134;11.576;2022-09-13T05:29:34;4.55;;;4.03;;
18499;SDS011;9379;52.134;11.576;2022-09-13T05:32:00;5.38;;;4.97;;
18499;SDS011;9379;52.134;11.576;2022-09-13T05:34:29;4.82;;;4.32;;
18499;SDS011;9379;52.134;11.576;2022-09-13T05:36:56;3.28;;;3.00;;
18499;SDS011;9379;52.134;11.576;2022-09-13T05:39:22;4.25;;;3.67;;
18499;SDS011;9379;52.134;11.576;2022-09-13T05:41:49;8.30;;;6.95;;
18499;SDS011;9379;52.134;11.576;2022-09-13T05:44:16;6.03;;;4.95;;
18499;SDS011;9379;52.134;11.576;2022-09-13T05:46:45;6.82;;;6.28;;
18499;SDS011;9379;52.134;11.576;2022-09-13T05:49:12;6.55;;;4.97;;
18499;SDS011;9379;52.134;11.576;2022-09-13T05:51:41;4.65;;;4.18;;
18499;SDS011;9379;52.134;11.576;2022-09-13T05:54:09;6.30;;;4.40;;
18499;SDS011;9379;52.134;11.576;2022-09-13T05:56:37;6.15;;;5.55;;
18499;SDS011;9379;52.134;11.576;2022-09-13T05:59:03;4.55;;;4.15;;
18499;SDS011;9379;52.134;11.576;2022-09-13T06:01:30;5.78;;;4.65;;
18499;SDS011;9379;52.134;11.576;2022-09-13T06:03:57;4.75;;;4.30;;
18499;SDS011;9379;52.134;11.576;2022-09-13T06:06:24;4.70;;;4.18;;
18499;SDS011;9379;52.134;11.576;2022-09-13T06:08:53;4.70;;;4.18;;
18499;SDS011;9379;52.134;11.576;2022-09-13T06:11:21;6.00;;;4.85;;
18499;SDS011;9379;52.134;11.576;2022-09-13T06:13:49;4.63;;;4.20;;
18499;SDS011;9379;52.134;11.576;2022-09-13T06:16:16;5.22;;;4.80;;
18499;SDS011;9379;52.134;11.576;2022-09-13T06:18:43;5.00;;;4.10;;
18499;SDS011;9379;52.134;11.576;2022-09-13T06:21:10;7.03;;;5.32;;
18499;SDS011;9379;52.134;11.576;2022-09-13T06:23:41;5.07;;;4.55;;
18499;SDS011;9379;52.134;11.576;2022-09-13T06:26:10;8.50;;;5.18;;
18499;SDS011;9379;52.134;11.576;2022-09-13T06:28:38;4.78;;;4.32;;
18499;SDS011;9379;52.134;11.576;2022-09-13T06:31:06;5.53;;;4.40;;
18499;SDS011;9379;52.134;11.576;2022-09-13T06:33:35;5.03;;;4.53;;
18499;SDS011;9379;52.134;11.576;2022-09-13T06:36:04;5.82;;;5.32;;
18499;SDS011;9379;52.134;11.576;2022-09-13T06:38:33;9.88;;;6.90;;
18499;SDS011;9379;52.134;11.576;2022-09-13T06:41:00;5.47;;;5.05;;
18499;SDS011;9379;52.134;11.576;2022-09-13T06:43:29;6.18;;;4.97;;
18499;SDS011;9379;52.134;11.576;2022-09-13T06:45:58;6.50;;;5.78;;
18499;SDS011;9379;52.134;11.576;2022-09-13T06:48:25;5.25;;;4.78;;
18499;SDS011;9379;52.134;11.576;2022-09-13T06:50:56;7.43;;;6.50;;
18499;SDS011;9379;52.134;11.576;2022-09-13T06:53:24;6.00;;;5.43;;
18499;SDS011;9379;52.134;11.576;2022-09-13T06:55:58;5.75;;;5.18;;
18499;SDS011;9379;52.134;11.576;2022-09-13T06:58:26;6.30;;;5.53;;
18499;SDS011;9379;52.134;11.576;2022-09-13T07:00:55;5.03;;;4.57;;
18499;SDS011;9379;52.134;11.576;2022-09-13T07:03:30;4.75;;;4.32;;
18499;SDS011;9379;52.134;11.576;2022-09-13T07:05:57;5.43;;;4.93;;
18499;SDS011;9379;52.134;11.576;2022-09-13T07:08:24;8.90;;;6.03;;
18499;SDS011;9379;52.134;11.576;2022-09-13T07:10:50;4.20;;;3.80;;
18499;SDS011;9379;52.134;11.576;2022-09-13T07:13:22;8.40;;;4.75;;
18499;SDS011;9379;52.134;11.576;2022-09-13T07:15:48;6.88;;;5.63;;
18499;SDS011;9379;52.134;11.576;2022-09-13T07:18:16;4.57;;;4.18;;
18499;SDS011;9379;52.134;11.576;2022-09-13T07:20:43;6.53;;;5.88;;
18499;SDS011;9379;52.134;11.576;2022-09-13T07:23:10;5.07;;;4.60;;
18499;SDS011;9379;52.134;11.576;2022-09-13T07:25:36;6.75;;;4.68;;
18499;SDS011;9379;52.134;11.576;2022-09-13T07:28:03;4.47;;;4.07;;
18499;SDS011;9379;52.134;11.576;2022-09-13T07:30:29;5.68;;;4.95;;
18499;SDS011;9379;52.134;11.576;2022-09-13T07:32:56;6.57;;;5.45;;
18499;SDS011;9379;52.134;11.576;2022-09-13T07:35:24;4.93;;;4.50;;
18499;SDS011;9379;52.134;11.576;2022-09-13T07:37:51;5.47;;;5.00;;
18499;SDS011;9379;52.134;11.576;2022-09-13T07:40:17;3.60;;;3.30;;
18499;SDS011;9379;52.134;11.576;2022-09-13T07:42:44;5.63;;;5.05;;
18499;SDS011;9379;52.134;11.576;2022-09-13T07:45:11;5.25;;;4.75;;
18499;SDS011;9379;52.134;11.576;2022-09-13T07:47:38;5.43;;;4.93;;
18499;SDS011;9379;52.134;11.576;2022-09-13T07:50:05;5.20;;;4.70;;
18499;SDS011;9379;52.134;11.576;2022-09-13T07:52:33;5.05;;;4.22;;
18499;SDS011;9379;52.134;11.576;2022-09-13T07:55:02;7.22;;;4.63;;
18499;SDS011;9379;52.134;11.576;2022-09-13T07:57:30;8.07;;;4.13;;
18499;SDS011;9379;52.134;11.576;2022-09-13T07:59:57;7.15;;;5.90;;
18499;SDS011;9379;52.134;11.576;2022-09-13T08:02:23;4.72;;;4.18;;
18499;SDS011;9379;52.134;11.576;2022-09-13T08:04:50;5.68;;;5.07;;
18499;SDS011;9379;52.134;11.576;2022-09-13T08:07:16;5.25;;;4.75;;
18499;SDS011;9379;52.134;11.576;2022-09-13T08:09:44;6.32;;;5.07;;
18499;SDS011;9379;52.134;11.576;2022-09-13T08:12:11;6.55;;;5.75;;
18499;SDS011;9379;52.134;11.576;2022-09-13T08:14:38;6.57;;;5.32;;
18499;SDS011;9379;52.134;11.576;2022-09-13T08:17:04;6.93;;;4.60;;
18499;SDS011;9379;52.134;11.576;2022-09-13T08:19:31;6.40;;;5.75;;
18499;SDS011;9379;52.134;11.576;2022-09-13T08:21:57;6.00;;;5.50;;
18499;SDS011;9379;52.134;11.576;2022-09-13T08:24:24;6.53;;;5.55;;
18499;SDS011;9379;52.134;11.576;2022-09-13T08:26:54;5.97;;;5.45;;
18499;SDS011;9379;52.134;11.576;2022-09-13T08:29:21;5.25;;;4.75;;
18499;SDS011;9379;52.134;11.576;2022-09-13T08:31:49;5.20;;;4.80;;
18499;SDS011;9379;52.134;11.576;2022-09-13T08:34:15;4.75;;;4.35;;
18499;SDS011;9379;52.134;11.576;2022-09-13T08:36:44;6.15;;;5.30;;
18499;SDS011;9379;52.134;11.576;2022-09-13T08:39:11;5.65;;;5.15;;
18499;SDS011;9379;52.134;11.576;2022-09-13T08:44:49;6.07;;;5.50;;
18499;SDS011;9379;52.134;11.576;2022-09-13T08:47:25;6.43;;;5.80;;
18499;SDS011;9379;52.134;11.576;2022-09-13T08:50:03;6.80;;;6.22;;
18499;SDS011;9379;52.134;11.576;2022-09-13T08:52:39;5.53;;;5.03;;
18499;SDS011;9379;52.134;11.576;2022-09-13T08:55:22;4.78;;;4.38;;
18499;SDS011;9379;52.134;11.576;2022-09-13T08:57:55;6.97;;;6.28;;
18499;SDS011;9379;52.134;11.576;2022-09-13T09:00:30;6.97;;;6.25;;
18499;SDS011;9379;52.134;11.576;2022-09-13T09:03:07;7.20;;;6.50;;
18499;SDS011;9379;52.134;11.576;2022-09-13T09:05:43;5.63;;;5.03;;
18499;SDS011;9379;52.134;11.576;2022-09-13T09:08:13;4.10;;;3.80;;
18499;SDS011;9379;52.134;11.576;2022-09-13T09:10:53;7.18;;;4.25;;
18499;SDS011;9379;52.134;11.576;2022-09-13T09:13:25;6.97;;;5.45;;
18499;SDS011;9379;52.134;11.576;2022-09-13T09:15:55;4.10;;;3.55;;
18499;SDS011;9379;52.134;11.576;2022-09-13T09:18:26;5.18;;;4.68;;
18499;SDS011;9379;52.134;11.576;2022-09-13T09:20:56;9.57;;;5.72;;
18499;SDS011;9379;52.134;11.576;2022-09-13T09:23:28;5.20;;;4.70;;
18499;SDS011;9379;52.134;11.576;2022-09-13T09:26:04;5.43;;;4.90;;
18499;SDS011;9379;52.134;11.576;2022-09-13T09:28:42;8.27;;;4.82;;
18499;SDS011;9379;52.134;11.576;2022-09-13T09:31:13;8.13;;;3.78;;
18499;SDS011;9379;52.134;11.576;2022-09-13T09:33:56;3.85;;;3.55;;
18499;SDS011;9379;52.134;11.576;2022-09-13T09:36:35;5.55;;;5.05;;
18499;SDS011;9379;52.134;11.576;2022-09-13T09:39:06;3.58;;;3.28;;
18499;SDS011;9379;52.134;11.576;2022-09-13T09:41:37;3.50;;;3.20;;
18499;SDS011;9379;52.134;11.576;2022-09-13T09:44:15;3.65;;;3.35;;
18499;SDS011;9379;52.134;11.576;2022-09-13T09:46:44;3.63;;;3.33;;
18499;SDS011;9379;52.134;11.576;2022-09-13T09:49:15;5.07;;;4.57;;
18499;SDS011;9379;52.134;11.576;2022-09-13T09:52:02;8.60;;;4.38;;
18499;SDS011;9379;52.134;11.576;2022-09-13T09:54:32;5.30;;;4.07;;
18499;SDS011;9379;52.134;11.576;2022-09-13T09:57:00;5.07;;;3.97;;
18499;SDS011;9379;52.134;11.576;2022-09-13T09:59:29;3.92;;;3.63;;
18499;SDS011;9379;52.134;11.576;2022-09-13T10:01:57;3.45;;;3.15;;
18499;SDS011;9379;52.134;11.576;2022-09-13T10:04:26;4.30;;;3.90;;
18499;SDS011;9379;52.134;11.576;2022-09-13T10:07:06;3.40;;;3.10;;
18499;SDS011;9379;52.134;11.576;2022-09-13T10:09:36;3.50;;;3.28;;
18499;SDS011;9379;52.134;11.576;2022-09-13T10:12:03;3.17;;;2.88;;
18499;SDS011;9379;52.134;11.576;2022-09-13T10:14:36;3.70;;;3.38;;
18499;SDS011;9379;52.134;11.576;2022-09-13T10:17:12;5.15;;;3.97;;
18499;SDS011;9379;52.134;11.576;2022-09-13T10:19:50;5.00;;;4.50;;
18499;SDS011;9379;52.134;11.576;2022-09-13T10:22:19;4.35;;;3.95;;
18499;SDS011;9379;52.134;11.576;2022-09-13T10:24:47;6.32;;;3.72;;
18499;SDS011;9379;52.134;11.576;2022-09-13T10:27:19;10.18;;;4.25;;
18499;SDS011;9379;52.134;11.576;2022-09-13T10:29:50;3.67;;;3.38;;
18499;SDS011;9379;52.134;11.576;2022-09-13T10:32:23;3.17;;;2.88;;
18499;SDS011;9379;52.134;11.576;2022-09-13T10:34:50;2.50;;;2.30;;
18499;SDS011;9379;52.134;11.576;2022-09-13T10:37:19;4.03;;;3.72;;
18499;SDS011;9379;52.134;11.576;2022-09-13T10:39:52;3.85;;;3.45;;
18499;SDS011;9379;52.134;11.576;2022-09-13T10:42:23;3.67;;;3.38;;
18499;SDS011;9379;52.134;11.576;2022-09-13T10:44:53;6.15;;;5.05;;
18499;SDS011;9379;52.134;11.576;2022-09-13T10:47:23;3.47;;;3.17;;
18499;SDS011;9379;52.134;11.576;2022-09-13T10:49:54;3.58;;;3.25;;
18499;SDS011;9379;52.134;11.576;2022-09-13T10:52:29;4.85;;;4.38;;
18499;SDS011;9379;52.134;11.576;2022-09-13T10:55:15;11.73;;;5.22;;
18499;SDS011;9379;52.134;11.576;2022-09-13T10:57:50;11.82;;;4.72;;
18499;SDS011;9379;52.134;11.576;2022-09-13T11:00:19;4.07;;;3.67;;
18499;SDS011;9379;52.134;11.576;2022-09-13T11:03:02;6.13;;;3.90;;
18499;SDS011;9379;52.134;11.576;2022-09-13T11:05:51;3.88;;;3.58;;
18499;SDS011;9379;52.134;11.576;2022-09-13T11:08:31;3.38;;;3.13;;
18499;SDS011;9379;52.134;11.576;2022-09-13T11:11:09;4.25;;;3.88;;
18499;SDS011;9379;52.134;11.576;2022-09-13T11:13:43;5.32;;;4.93;;
18499;SDS011;9379;52.134;11.576;2022-09-13T11:16:25;4.30;;;3.90;;
18499;SDS011;9379;52.134;11.576;2022-09-13T11:19:06;3.80;;;3.17;;
18499;SDS011;9379;52.134;11.576;2022-09-13T11:21:47;4.55;;;4.15;;
18499;SDS011;9379;52.134;11.576;2022-09-13T11:27:21;4.70;;;4.30;;
18499;SDS011;9379;52.134;11.576;2022-09-13T11:30:02;7.10;;;2.33;;
18499;SDS011;9379;52.134;11.576;2022-09-13T11:32:40;4.82;;;3.67;;
18499;SDS011;9379;52.134;11.576;2022-09-13T11:35:21;4.47;;;4.03;;
18499;SDS011;9379;52.134;11.576;2022-09-13T11:38:02;4.88;;;4.38;;
18499;SDS011;9379;52.134;11.576;2022-09-13T11:40:40;4.53;;;4.13;;
18499;SDS011;9379;52.134;11.576;2022-09-13T11:43:20;4.88;;;4.47;;
18499;SDS011;9379;52.134;11.576;2022-09-13T11:46:06;6.03;;;5.13;;
18499;SDS011;9379;52.134;11.576;2022-09-13T11:51:40;4.22;;;3.50;;
18499;SDS011;9379;52.134;11.576;2022-09-13T11:54:22;6.72;;;5.93;;
18499;SDS011;9379;52.134;11.576;2022-09-13T11:57:02;3.97;;;3.60;;
18499;SDS011;9379;52.134;11.576;2022-09-13T11:59:35;3.25;;;2.95;;
18499;SDS011;9379;52.134;11.576;2022-09-13T12:02:08;3.42;;;3.13;;
18499;SDS011;9379;52.134;11.576;2022-09-13T12:04:46;3.75;;;3.45;;
18499;SDS011;9379;52.134;11.576;2022-09-13T12:07:22;4.18;;;3.78;;
18499;SDS011;9379;52.134;11.576;2022-09-13T12:09:56;4.35;;;4.05;;
18499;SDS011;9379;52.134;11.576;2022-09-13T12:12:31;3.15;;;2.95;;
18499;SDS011;9379;52.134;11.576;2022-09-13T12:15:02;6.05;;;2.78;;
18499;SDS011;9379;52.134;11.576;2022-09-13T12:17:34;3.10;;;2.80;;
18499;SDS011;9379;52.134;11.576;2022-09-13T12:20:11;6.80;;;3.75;;
18499;SDS011;9379;52.134;11.576;2022-09-13T12:22:42;2.63;;;2.42;;
18499;SDS011;9379;52.134;11.576;2022-09-13T12:25:14;4.30;;;3.83;;
18499;SDS011;9379;52.134;11.576;2022-09-13T12:27:47;3.42;;;3.13;;
18499;SDS011;9379;52.134;11.576;2022-09-13T12:30:19;3.05;;;2.58;;
18499;SDS011;9379;52.134;11.576;2022-09-13T12:32:47;3.75;;;3.45;;
18499;SDS011;9379;52.134;11.576;2022-09-13T12:35:18;4.40;;;4.00;;
18499;SDS011;9379;52.134;11.576;2022-09-13T12:38:11;4.80;;;3.75;;
18499;SDS011;9379;52.134;11.576;2022-09-13T12:40:57;3.70;;;3.20;;
18499;SDS011;9379;52.134;11.576;2022-09-13T12:43:41;3.88;;;3.53;;
18499;SDS011;9379;52.134;11.576;2022-09-13T12:46:30;11.60;;;5.32;;
18499;SDS011;9379;52.134;11.576;2022-09-13T12:49:20;4.28;;;3.17;;
18499;SDS011;9379;52.134;11.576;2022-09-13T12:52:02;3.90;;;3.58;;
18499;SDS011;9379;52.134;11.576;2022-09-13T12:54:50;3.53;;;3.22;;
18499;SDS011;9379;52.134;11.576;2022-09-13T12:57:33;3.53;;;3.22;;
18499;SDS011;9379;52.134;11.576;2022-09-13T13:00:16;4.07;;;3.40;;
18499;SDS011;9379;52.134;11.576;2022-09-13T13:02:49;3.83;;;3.53;;
18499;SDS011;9379;52.134;11.576;2022-09-13T13:05:30;4.53;;;4.13;;
18499;SDS011;9379;52.134;11.576;2022-09-13T13:08:01;6.35;;;4.05;;
18499;SDS011;9379;52.134;11.576;2022-09-13T13:10:31;6.95;;;4.88;;
18499;SDS011;9379;52.134;11.576;2022-09-13T13:13:10;6.10;;;3.72;;
18499;SDS011;9379;52.134;11.576;2022-09-13T13:15:56;2.65;;;2.45;;
18499;SDS011;9379;52.134;11.576;2022-09-13T13:18:29;3.45;;;3.15;;
18499;SDS011;9379;52.134;11.576;2022-09-13T13:21:04;3.10;;;2.83;;
18499;SDS011;9379;52.134;11.576;2022-09-13T13:23:49;5.65;;;2.63;;
18499;SDS011;9379;52.134;11.576;2022-09-13T13:26:55;10.23;;;3.67;;
18499;SDS011;9379;52.134;11.576;2022-09-13T13:29:23;6.72;;;3.50;;
18499;SDS011;9379;52.134;11.576;2022-09-13T13:32:04;3.83;;;3.53;;
18499;SDS011;9379;52.134;11.576;2022-09-13T13:34:37;5.40;;;3.75;;
18499;SDS011;9379;52.134;11.576;2022-09-13T13:37:23;3.65;;;3.35;;
18499;SDS011;9379;52.134;11.576;2022-09-13T13:40:11;4.05;;;3.75;;
18499;SDS011;9379;52.134;11.576;2022-09-13T13:42:46;10.38;;;3.88;;
18499;SDS011;9379;52.134;11.576;2022-09-13T13:45:20;6.70;;;4.18;;
18499;SDS011;9379;52.134;11.576;2022-09-13T13:50:33;3.28;;;2.97;;
18499;SDS011;9379;52.134;11.576;2022-09-13T13:53:16;10.73;;;4.88;;
18499;SDS011;9379;52.134;11.576;2022-09-13T13:55:47;6.03;;;3.50;;
18499;SDS011;9379;52.134;11.576;2022-09-13T13:58:42;4.07;;;3.78;;
18499;SDS011;9379;52.134;11.576;2022-09-13T14:01:13;7.90;;;3.72;;
18499;SDS011;9379;52.134;11.576;2022-09-13T14:03:53;6.38;;;3.38;;
18499;SDS011;9379;52.134;11.576;2022-09-13T14:06:48;4.03;;;3.35;;
18499;SDS011;9379;52.134;11.576;2022-09-13T14:09:27;4.13;;;3.72;;
18499;SDS011;9379;52.134;11.576;2022-09-13T14:12:09;4.18;;;3.78;;
18499;SDS011;9379;52.134;11.576;2022-09-13T14:17:49;5.03;;;3.58;;
18499;SDS011;9379;52.134;11.576;2022-09-13T14:20:36;5.43;;;3.42;;
18499;SDS011;9379;52.134;11.576;2022-09-13T14:23:15;5.72;;;3.92;;
18499;SDS011;9379;52.134;11.576;2022-09-13T14:25:43;3.53;;;3.17;;
18499;SDS011;9379;52.134;11.576;2022-09-13T14:28:12;5.30;;;4.65;;
18499;SDS011;9379;52.134;11.576;2022-09-13T14:30:43;4.03;;;3.53;;
18499;SDS011;9379;52.134;11.576;2022-09-13T14:33:15;8.35;;;4.32;;
18499;SDS011;9379;52.134;11.576;2022-09-13T14:35:55;6.88;;;2.85;;
18499;SDS011;9379;52.134;11.576;2022-09-13T14:38:24;6.85;;;3.60;;
18499;SDS011;9379;52.134;11.576;2022-09-13T14:40:57;4.05;;;3.50;;
18499;SDS011;9379;52.134;11.576;2022-09-13T14:43:27;3.92;;;3.28;;
18499;SDS011;9379;52.134;11.576;2022-09-13T14:45:57;3.80;;;3.50;;
18499;SDS011;9379;52.134;11.576;2022-09-13T14:48:30;3.45;;;3.15;;
18499;SDS011;9379;52.134;11.576;2022-09-13T14:51:03;4.00;;;3.60;;
18499;SDS011;9379;52.134;11.576;2022-09-13T14:53:39;5.30;;;4.80;;
18499;SDS011;9379;52.134;11.576;2022-09-13T14:56:11;3.45;;;3.15;;
18499;SDS011;9379;52.134;11.576;2022-09-13T14:58:45;4.50;;;4.10;;
18499;SDS011;9379;52.134;11.576;2022-09-13T15:01:15;3.15;;;2.88;;
18499;SDS011;9379;52.134;11.576;2022-09-13T15:03:45;4.03;;;3.63;;
18499;SDS011;9379;52.134;11.576;2022-09-13T15:06:19;4.32;;;3.92;;
18499;SDS011;9379;52.134;11.576;2022-09-13T15:08:49;3.60;;;3.13;;
18499;SDS011;9379;52.134;11.576;2022-09-13T15:11:25;3.70;;;3.40;;
18499;SDS011;9379;52.134;11.576;2022-09-13T15:14:02;3.97;;;3.60;;
18499;SDS011;9379;52.134;11.576;2022-09-13T15:16:47;3.65;;;3.35;;
18499;SDS011;9379;52.134;11.576;2022-09-13T15:19:16;4.93;;;4.43;;
18499;SDS011;9379;52.134;11.576;2022-09-13T15:22:00;4.15;;;3.72;;
18499;SDS011;9379;52.134;11.576;2022-09-13T15:24:30;4.30;;;3.90;;
18499;SDS011;9379;52.134;11.576;2022-09-13T15:27:02;4.38;;;4.00;;
18499;SDS011;9379;52.134;11.576;2022-09-13T15:29:32;3.80;;;3.50;;
18499;SDS011;9379;52.134;11.576;2022-09-13T15:32:01;5.07;;;4.65;;
18499;SDS011;9379;52.134;11.576;2022-09-13T15:34:29;4.60;;;3.70;;
18499;SDS011;9379;52.134;11.576;2022-09-13T15:37:09;5.35;;;4.85;;
18499;SDS011;9379;52.134;11.576;2022-09-13T15:39:46;5.78;;;4.82;;
18499;SDS011;9379;52.134;11.576;2022-09-13T15:42:15;5.70;;;5.15;;